sensor_id;sensor_type;location;lat;lon;timestamp;P1;durP1;ratioP1;P2;durP2;ratioP2
67816;SDS011;54614;47.576;7.524;2023-07-31T00:00:30;1.50;;;1.35;;
67816;SDS011;54614;47.576;7.524;2023-07-31T00:02:56;1.80;;;1.27;;
67816;SDS011;54614;47.576;7.524;2023-07-31T00:05:22;4.18;;;1.30;;
67816;SDS011;54614;47.576;7.524;2023-07-31T00:07:47;2.58;;;1.40;;
67816;SDS011;54614;47.576;7.524;2023-07-31T00:10:13;2.75;;;1.40;;
67816;SDS011;54614;47.576;7.524;2023-07-31T00:12:40;2.78;;;1.50;;
67816;SDS011;54614;47.576;7.524;2023-07-31T00:15:08;1.25;;;1.15;;
67816;SDS011;54614;47.576;7.524;2023-07-31T00:17:34;1.90;;;1.33;;
67816;SDS011;54614;47.576;7.524;2023-07-31T00:20:02;2.45;;;1.40;;
67816;SDS011;54614;47.576;7.524;2023-07-31T00:22:28;2.03;;;1.40;;
67816;SDS011;54614;47.576;7.524;2023-07-31T00:24:55;1.20;;;1.17;;
67816;SDS011;54614;47.576;7.524;2023-07-31T00:27:22;2.10;;;1.50;;
67816;SDS011;54614;47.576;7.524;2023-07-31T00:29:48;2.38;;;1.30;;
67816;SDS011;54614;47.576;7.524;2023-07-31T00:32:14;4.13;;;1.20;;
67816;SDS011;54614;47.576;7.524;2023-07-31T00:34:39;1.40;;;1.10;;
67816;SDS011;54614;47.576;7.524;2023-07-31T00:37:05;1.40;;;1.30;;
67816;SDS011;54614;47.576;7.524;2023-07-31T00:39:33;1.40;;;1.30;;
67816;SDS011;54614;47.576;7.524;2023-07-31T00:42:00;1.40;;;1.30;;
67816;SDS011;54614;47.576;7.524;2023-07-31T00:44:26;1.63;;;1.27;;
67816;SDS011;54614;47.576;7.524;2023-07-31T00:46:51;1.48;;;1.30;;
67816;SDS011;54614;47.576;7.524;2023-07-31T00:49:18;2.33;;;1.20;;
67816;SDS011;54614;47.576;7.524;2023-07-31T00:51:45;3.30;;;1.20;;
67816;SDS011;54614;47.576;7.524;2023-07-31T00:54:11;1.27;;;1.20;;
67816;SDS011;54614;47.576;7.524;2023-07-31T00:56:37;1.27;;;1.08;;
67816;SDS011;54614;47.576;7.524;2023-07-31T00:59:05;1.42;;;1.30;;
67816;SDS011;54614;47.576;7.524;2023-07-31T01:01:31;1.98;;;1.30;;
67816;SDS011;54614;47.576;7.524;2023-07-31T01:03:57;2.47;;;1.20;;
67816;SDS011;54614;47.576;7.524;2023-07-31T01:12:22;1.33;;;1.25;;
67816;SDS011;54614;47.576;7.524;2023-07-31T01:17:37;1.92;;;1.27;;
67816;SDS011;54614;47.576;7.524;2023-07-31T01:20:05;2.30;;;1.20;;
67816;SDS011;54614;47.576;7.524;2023-07-31T01:31:25;1.20;;;1.20;;
67816;SDS011;54614;47.576;7.524;2023-07-31T01:33:54;2.17;;;1.20;;
67816;SDS011;54614;47.576;7.524;2023-07-31T01:36:24;1.20;;;1.10;;
67816;SDS011;54614;47.576;7.524;2023-07-31T01:38:51;1.10;;;1.10;;
67816;SDS011;54614;47.576;7.524;2023-07-31T01:41:17;1.10;;;1.10;;
67816;SDS011;54614;47.576;7.524;2023-07-31T01:43:44;1.20;;;1.10;;
67816;SDS011;54614;47.576;7.524;2023-07-31T01:46:11;1.10;;;1.10;;
67816;SDS011;54614;47.576;7.524;2023-07-31T01:48:37;1.00;;;1.00;;
67816;SDS011;54614;47.576;7.524;2023-07-31T01:51:03;1.10;;;1.10;;
67816;SDS011;54614;47.576;7.524;2023-07-31T01:53:30;1.70;;;1.20;;
67816;SDS011;54614;47.576;7.524;2023-07-31T01:55:57;1.30;;;1.20;;
67816;SDS011;54614;47.576;7.524;2023-07-31T01:58:22;1.10;;;1.10;;
67816;SDS011;54614;47.576;7.524;2023-07-31T02:00:48;1.00;;;1.00;;
67816;SDS011;54614;47.576;7.524;2023-07-31T02:03:14;1.27;;;1.23;;
67816;SDS011;54614;47.576;7.524;2023-07-31T02:05:46;1.20;;;1.20;;
67816;SDS011;54614;47.576;7.524;2023-07-31T02:08:14;1.10;;;1.00;;
67816;SDS011;54614;47.576;7.524;2023-07-31T02:10:41;1.00;;;1.00;;
67816;SDS011;54614;47.576;7.524;2023-07-31T02:13:06;1.30;;;1.20;;
67816;SDS011;54614;47.576;7.524;2023-07-31T02:15:33;1.10;;;1.10;;
67816;SDS011;54614;47.576;7.524;2023-07-31T02:18:00;1.20;;;1.10;;
67816;SDS011;54614;47.576;7.524;2023-07-31T02:20:26;1.50;;;1.17;;
67816;SDS011;54614;47.576;7.524;2023-07-31T02:22:51;1.23;;;1.13;;
67816;SDS011;54614;47.576;7.524;2023-07-31T02:25:17;1.20;;;1.10;;
67816;SDS011;54614;47.576;7.524;2023-07-31T02:27:43;1.35;;;1.20;;
67816;SDS011;54614;47.576;7.524;2023-07-31T02:30:09;1.00;;;1.00;;
67816;SDS011;54614;47.576;7.524;2023-07-31T02:32:35;1.00;;;1.00;;
67816;SDS011;54614;47.576;7.524;2023-07-31T02:35:01;1.23;;;1.13;;
67816;SDS011;54614;47.576;7.524;2023-07-31T02:37:27;1.00;;;1.00;;
67816;SDS011;54614;47.576;7.524;2023-07-31T02:39:54;1.73;;;1.20;;
67816;SDS011;54614;47.576;7.524;2023-07-31T02:42:20;1.10;;;1.10;;
67816;SDS011;54614;47.576;7.524;2023-07-31T02:44:46;1.58;;;1.08;;
67816;SDS011;54614;47.576;7.524;2023-07-31T02:47:12;1.00;;;1.00;;
67816;SDS011;54614;47.576;7.524;2023-07-31T02:49:37;2.33;;;0.90;;
67816;SDS011;54614;47.576;7.524;2023-07-31T02:52:03;1.17;;;1.15;;
67816;SDS011;54614;47.576;7.524;2023-07-31T02:54:29;1.00;;;1.00;;
67816;SDS011;54614;47.576;7.524;2023-07-31T02:56:55;1.05;;;1.05;;
67816;SDS011;54614;47.576;7.524;2023-07-31T02:59:20;1.33;;;1.15;;
67816;SDS011;54614;47.576;7.524;2023-07-31T03:01:46;1.00;;;1.00;;
67816;SDS011;54614;47.576;7.524;2023-07-31T03:04:12;1.00;;;1.00;;
67816;SDS011;54614;47.576;7.524;2023-07-31T03:06:38;1.10;;;1.10;;
67816;SDS011;54614;47.576;7.524;2023-07-31T03:09:03;0.93;;;0.93;;
67816;SDS011;54614;47.576;7.524;2023-07-31T03:11:29;1.10;;;1.10;;
67816;SDS011;54614;47.576;7.524;2023-07-31T03:13:55;1.10;;;1.10;;
67816;SDS011;54614;47.576;7.524;2023-07-31T03:16:21;1.00;;;1.00;;
67816;SDS011;54614;47.576;7.524;2023-07-31T03:18:47;1.02;;;1.02;;
67816;SDS011;54614;47.576;7.524;2023-07-31T03:21:13;2.15;;;1.10;;
67816;SDS011;54614;47.576;7.524;2023-07-31T03:23:39;1.13;;;1.08;;
67816;SDS011;54614;47.576;7.524;2023-07-31T03:26:06;1.17;;;1.13;;
67816;SDS011;54614;47.576;7.524;2023-07-31T03:28:33;1.95;;;1.02;;
67816;SDS011;54614;47.576;7.524;2023-07-31T03:30:58;1.10;;;1.10;;
67816;SDS011;54614;47.576;7.524;2023-07-31T03:33:25;2.03;;;1.17;;
67816;SDS011;54614;47.576;7.524;2023-07-31T03:35:51;0.90;;;0.90;;
67816;SDS011;54614;47.576;7.524;2023-07-31T03:38:17;1.00;;;1.00;;
67816;SDS011;54614;47.576;7.524;2023-07-31T03:40:43;1.23;;;1.00;;
67816;SDS011;54614;47.576;7.524;2023-07-31T03:43:09;1.10;;;1.10;;
67816;SDS011;54614;47.576;7.524;2023-07-31T03:45:36;1.20;;;1.10;;
67816;SDS011;54614;47.576;7.524;2023-07-31T03:48:02;1.30;;;1.00;;
67816;SDS011;54614;47.576;7.524;2023-07-31T03:50:29;1.17;;;0.95;;
67816;SDS011;54614;47.576;7.524;2023-07-31T03:52:55;6.00;;;1.10;;
67816;SDS011;54614;47.576;7.524;2023-07-31T03:55:21;1.73;;;0.90;;
67816;SDS011;54614;47.576;7.524;2023-07-31T03:57:47;1.20;;;1.10;;
67816;SDS011;54614;47.576;7.524;2023-07-31T04:00:13;1.08;;;1.08;;
67816;SDS011;54614;47.576;7.524;2023-07-31T04:02:39;1.17;;;1.08;;
67816;SDS011;54614;47.576;7.524;2023-07-31T04:05:05;1.17;;;1.17;;
67816;SDS011;54614;47.576;7.524;2023-07-31T04:07:31;1.10;;;1.10;;
67816;SDS011;54614;47.576;7.524;2023-07-31T04:09:57;1.00;;;1.00;;
67816;SDS011;54614;47.576;7.524;2023-07-31T04:12:23;1.05;;;1.00;;
67816;SDS011;54614;47.576;7.524;2023-07-31T04:14:49;1.33;;;1.10;;
67816;SDS011;54614;47.576;7.524;2023-07-31T04:17:15;1.20;;;1.13;;
67816;SDS011;54614;47.576;7.524;2023-07-31T04:19:42;0.98;;;0.98;;
67816;SDS011;54614;47.576;7.524;2023-07-31T04:22:08;1.05;;;1.05;;
67816;SDS011;54614;47.576;7.524;2023-07-31T04:24:34;1.77;;;1.20;;
67816;SDS011;54614;47.576;7.524;2023-07-31T04:27:00;4.28;;;1.02;;
67816;SDS011;54614;47.576;7.524;2023-07-31T04:29:25;1.02;;;1.02;;
67816;SDS011;54614;47.576;7.524;2023-07-31T04:31:51;1.83;;;1.00;;
67816;SDS011;54614;47.576;7.524;2023-07-31T04:34:17;0.90;;;0.90;;
67816;SDS011;54614;47.576;7.524;2023-07-31T04:36:42;0.93;;;0.93;;
67816;SDS011;54614;47.576;7.524;2023-07-31T04:39:08;0.90;;;0.90;;
67816;SDS011;54614;47.576;7.524;2023-07-31T04:41:34;1.88;;;1.00;;
67816;SDS011;54614;47.576;7.524;2023-07-31T04:44:00;1.27;;;1.20;;
67816;SDS011;54614;47.576;7.524;2023-07-31T04:46:26;1.13;;;1.10;;
67816;SDS011;54614;47.576;7.524;2023-07-31T04:48:52;0.95;;;0.95;;
67816;SDS011;54614;47.576;7.524;2023-07-31T04:51:17;0.90;;;0.90;;
67816;SDS011;54614;47.576;7.524;2023-07-31T04:53:43;1.20;;;1.10;;
67816;SDS011;54614;47.576;7.524;2023-07-31T04:56:09;1.13;;;0.98;;
67816;SDS011;54614;47.576;7.524;2023-07-31T04:58:35;1.67;;;1.00;;
67816;SDS011;54614;47.576;7.524;2023-07-31T05:01:00;0.90;;;0.90;;
67816;SDS011;54614;47.576;7.524;2023-07-31T05:03:26;1.00;;;1.00;;
67816;SDS011;54614;47.576;7.524;2023-07-31T05:05:52;1.00;;;1.00;;
67816;SDS011;54614;47.576;7.524;2023-07-31T05:08:17;1.00;;;1.00;;
67816;SDS011;54614;47.576;7.524;2023-07-31T05:10:43;1.00;;;1.00;;
67816;SDS011;54614;47.576;7.524;2023-07-31T05:13:09;1.15;;;1.10;;
67816;SDS011;54614;47.576;7.524;2023-07-31T05:15:35;0.90;;;0.90;;
67816;SDS011;54614;47.576;7.524;2023-07-31T05:18:00;1.10;;;1.10;;
67816;SDS011;54614;47.576;7.524;2023-07-31T05:20:26;1.55;;;1.00;;
67816;SDS011;54614;47.576;7.524;2023-07-31T05:22:52;1.17;;;1.00;;
67816;SDS011;54614;47.576;7.524;2023-07-31T05:25:18;1.02;;;1.02;;
67816;SDS011;54614;47.576;7.524;2023-07-31T05:27:44;2.08;;;1.05;;
67816;SDS011;54614;47.576;7.524;2023-07-31T05:30:10;3.33;;;1.08;;
67816;SDS011;54614;47.576;7.524;2023-07-31T05:32:36;1.42;;;1.00;;
67816;SDS011;54614;47.576;7.524;2023-07-31T05:35:01;1.20;;;1.10;;
67816;SDS011;54614;47.576;7.524;2023-07-31T05:37:27;2.78;;;1.45;;
67816;SDS011;54614;47.576;7.524;2023-07-31T05:39:53;2.05;;;1.45;;
67816;SDS011;54614;47.576;7.524;2023-07-31T05:42:19;2.45;;;1.83;;
67816;SDS011;54614;47.576;7.524;2023-07-31T05:44:45;4.07;;;2.10;;
67816;SDS011;54614;47.576;7.524;2023-07-31T05:47:10;3.08;;;2.10;;
67816;SDS011;54614;47.576;7.524;2023-07-31T05:49:36;3.35;;;2.20;;
67816;SDS011;54614;47.576;7.524;2023-07-31T05:52:02;3.55;;;2.00;;
67816;SDS011;54614;47.576;7.524;2023-07-31T05:54:28;7.50;;;2.30;;
67816;SDS011;54614;47.576;7.524;2023-07-31T05:56:54;4.78;;;2.30;;
67816;SDS011;54614;47.576;7.524;2023-07-31T05:59:20;6.18;;;2.28;;
67816;SDS011;54614;47.576;7.524;2023-07-31T06:01:46;10.02;;;2.35;;
67816;SDS011;54614;47.576;7.524;2023-07-31T06:04:11;2.38;;;2.05;;
67816;SDS011;54614;47.576;7.524;2023-07-31T06:06:37;5.15;;;2.10;;
67816;SDS011;54614;47.576;7.524;2023-07-31T06:09:03;5.93;;;2.25;;
67816;SDS011;54614;47.576;7.524;2023-07-31T06:11:29;3.55;;;2.15;;
67816;SDS011;54614;47.576;7.524;2023-07-31T06:13:54;5.97;;;2.08;;
67816;SDS011;54614;47.576;7.524;2023-07-31T06:16:20;5.20;;;2.30;;
67816;SDS011;54614;47.576;7.524;2023-07-31T06:18:46;8.65;;;2.50;;
67816;SDS011;54614;47.576;7.524;2023-07-31T06:21:12;4.68;;;1.90;;
67816;SDS011;54614;47.576;7.524;2023-07-31T06:23:38;3.55;;;2.33;;
67816;SDS011;54614;47.576;7.524;2023-07-31T06:26:04;4.25;;;2.50;;
67816;SDS011;54614;47.576;7.524;2023-07-31T06:28:30;8.65;;;2.50;;
67816;SDS011;54614;47.576;7.524;2023-07-31T06:30:57;7.93;;;2.53;;
67816;SDS011;54614;47.576;7.524;2023-07-31T06:33:23;14.02;;;3.40;;
67816;SDS011;54614;47.576;7.524;2023-07-31T06:35:50;12.45;;;3.22;;
67816;SDS011;54614;47.576;7.524;2023-07-31T06:38:16;10.13;;;2.60;;
67816;SDS011;54614;47.576;7.524;2023-07-31T06:40:48;11.70;;;2.97;;
67816;SDS011;54614;47.576;7.524;2023-07-31T06:43:14;14.05;;;2.63;;
67816;SDS011;54614;47.576;7.524;2023-07-31T06:45:39;10.68;;;3.10;;
67816;SDS011;54614;47.576;7.524;2023-07-31T06:48:05;12.43;;;2.60;;
67816;SDS011;54614;47.576;7.524;2023-07-31T06:50:31;9.63;;;2.53;;
67816;SDS011;54614;47.576;7.524;2023-07-31T06:52:57;9.70;;;2.35;;
67816;SDS011;54614;47.576;7.524;2023-07-31T06:55:24;9.13;;;2.30;;
67816;SDS011;54614;47.576;7.524;2023-07-31T06:57:51;5.70;;;2.45;;
67816;SDS011;54614;47.576;7.524;2023-07-31T07:00:19;9.75;;;2.40;;
67816;SDS011;54614;47.576;7.524;2023-07-31T07:02:47;6.10;;;2.35;;
67816;SDS011;54614;47.576;7.524;2023-07-31T07:05:13;6.65;;;2.17;;
67816;SDS011;54614;47.576;7.524;2023-07-31T07:07:40;7.70;;;2.33;;
67816;SDS011;54614;47.576;7.524;2023-07-31T07:10:07;8.63;;;2.53;;
67816;SDS011;54614;47.576;7.524;2023-07-31T07:12:33;6.18;;;2.38;;
67816;SDS011;54614;47.576;7.524;2023-07-31T07:14:59;6.25;;;2.17;;
67816;SDS011;54614;47.576;7.524;2023-07-31T07:17:26;3.67;;;2.10;;
67816;SDS011;54614;47.576;7.524;2023-07-31T07:19:56;7.38;;;2.60;;
67816;SDS011;54614;47.576;7.524;2023-07-31T07:22:22;5.03;;;2.10;;
67816;SDS011;54614;47.576;7.524;2023-07-31T07:24:49;5.55;;;2.25;;
67816;SDS011;54614;47.576;7.524;2023-07-31T07:27:14;11.05;;;2.38;;
67816;SDS011;54614;47.576;7.524;2023-07-31T07:29:40;3.95;;;2.20;;
67816;SDS011;54614;47.576;7.524;2023-07-31T07:32:06;5.30;;;2.30;;
67816;SDS011;54614;47.576;7.524;2023-07-31T07:34:32;6.55;;;2.35;;
67816;SDS011;54614;47.576;7.524;2023-07-31T07:36:58;6.00;;;2.53;;
67816;SDS011;54614;47.576;7.524;2023-07-31T07:39:24;6.78;;;2.33;;
67816;SDS011;54614;47.576;7.524;2023-07-31T07:41:50;5.30;;;1.83;;
67816;SDS011;54614;47.576;7.524;2023-07-31T07:44:15;7.53;;;2.22;;
67816;SDS011;54614;47.576;7.524;2023-07-31T07:46:41;3.00;;;1.90;;
67816;SDS011;54614;47.576;7.524;2023-07-31T07:49:08;6.57;;;2.03;;
67816;SDS011;54614;47.576;7.524;2023-07-31T07:51:34;4.97;;;2.13;;
67816;SDS011;54614;47.576;7.524;2023-07-31T07:53:59;6.18;;;2.40;;
67816;SDS011;54614;47.576;7.524;2023-07-31T07:56:26;5.65;;;2.40;;
67816;SDS011;54614;47.576;7.524;2023-07-31T07:58:52;6.10;;;2.20;;
67816;SDS011;54614;47.576;7.524;2023-07-31T08:01:19;3.20;;;1.95;;
67816;SDS011;54614;47.576;7.524;2023-07-31T08:03:46;5.72;;;2.20;;
67816;SDS011;54614;47.576;7.524;2023-07-31T08:06:12;3.83;;;2.10;;
67816;SDS011;54614;47.576;7.524;2023-07-31T08:08:39;3.72;;;2.13;;
67816;SDS011;54614;47.576;7.524;2023-07-31T08:11:05;3.55;;;2.05;;
67816;SDS011;54614;47.576;7.524;2023-07-31T08:13:31;2.30;;;2.05;;
67816;SDS011;54614;47.576;7.524;2023-07-31T08:15:57;6.63;;;2.10;;
67816;SDS011;54614;47.576;7.524;2023-07-31T08:18:23;3.75;;;1.92;;
67816;SDS011;54614;47.576;7.524;2023-07-31T08:20:50;3.40;;;2.05;;
67816;SDS011;54614;47.576;7.524;2023-07-31T08:23:16;4.50;;;2.22;;
67816;SDS011;54614;47.576;7.524;2023-07-31T08:25:41;4.93;;;1.90;;
67816;SDS011;54614;47.576;7.524;2023-07-31T08:28:07;4.78;;;2.10;;
67816;SDS011;54614;47.576;7.524;2023-07-31T08:30:33;4.20;;;1.90;;
67816;SDS011;54614;47.576;7.524;2023-07-31T08:32:59;4.63;;;2.08;;
67816;SDS011;54614;47.576;7.524;2023-07-31T08:35:26;3.65;;;1.90;;
67816;SDS011;54614;47.576;7.524;2023-07-31T08:37:54;3.83;;;2.08;;
67816;SDS011;54614;47.576;7.524;2023-07-31T08:40:20;4.47;;;1.75;;
67816;SDS011;54614;47.576;7.524;2023-07-31T08:42:51;2.67;;;1.60;;
67816;SDS011;54614;47.576;7.524;2023-07-31T08:45:19;3.45;;;1.73;;
67816;SDS011;54614;47.576;7.524;2023-07-31T08:47:47;2.78;;;1.90;;
67816;SDS011;54614;47.576;7.524;2023-07-31T08:50:16;4.57;;;2.05;;
67816;SDS011;54614;47.576;7.524;2023-07-31T08:52:47;6.85;;;1.95;;
67816;SDS011;54614;47.576;7.524;2023-07-31T08:55:14;5.45;;;1.73;;
67816;SDS011;54614;47.576;7.524;2023-07-31T08:57:40;2.88;;;1.90;;
67816;SDS011;54614;47.576;7.524;2023-07-31T09:00:08;5.00;;;1.85;;
67816;SDS011;54614;47.576;7.524;2023-07-31T09:05:37;3.70;;;2.00;;
67816;SDS011;54614;47.576;7.524;2023-07-31T09:08:08;2.97;;;1.80;;
67816;SDS011;54614;47.576;7.524;2023-07-31T09:10:39;4.10;;;2.08;;
67816;SDS011;54614;47.576;7.524;2023-07-31T09:13:08;3.13;;;1.80;;
67816;SDS011;54614;47.576;7.524;2023-07-31T09:15:35;2.83;;;1.80;;
67816;SDS011;54614;47.576;7.524;2023-07-31T09:18:03;2.80;;;1.80;;
67816;SDS011;54614;47.576;7.524;2023-07-31T09:20:30;2.53;;;1.70;;
67816;SDS011;54614;47.576;7.524;2023-07-31T09:23:00;3.70;;;2.00;;
67816;SDS011;54614;47.576;7.524;2023-07-31T09:25:33;1.88;;;1.73;;
67816;SDS011;54614;47.576;7.524;2023-07-31T09:27:59;3.03;;;2.03;;
67816;SDS011;54614;47.576;7.524;2023-07-31T09:30:28;3.13;;;1.77;;
67816;SDS011;54614;47.576;7.524;2023-07-31T09:33:01;5.03;;;2.03;;
67816;SDS011;54614;47.576;7.524;2023-07-31T09:35:34;3.70;;;1.70;;
67816;SDS011;54614;47.576;7.524;2023-07-31T09:40:35;2.58;;;1.73;;
67816;SDS011;54614;47.576;7.524;2023-07-31T09:43:04;3.17;;;1.90;;
67816;SDS011;54614;47.576;7.524;2023-07-31T09:45:36;3.10;;;1.88;;
67816;SDS011;54614;47.576;7.524;2023-07-31T09:48:12;2.95;;;1.80;;
67816;SDS011;54614;47.576;7.524;2023-07-31T09:50:43;5.25;;;1.90;;
67816;SDS011;54614;47.576;7.524;2023-07-31T09:53:11;3.05;;;1.63;;
67816;SDS011;54614;47.576;7.524;2023-07-31T09:55:38;2.90;;;1.70;;
67816;SDS011;54614;47.576;7.524;2023-07-31T09:58:07;2.42;;;1.90;;
67816;SDS011;54614;47.576;7.524;2023-07-31T10:00:35;3.47;;;2.10;;
67816;SDS011;54614;47.576;7.524;2023-07-31T10:03:06;2.22;;;1.70;;
67816;SDS011;54614;47.576;7.524;2023-07-31T10:05:35;3.33;;;1.60;;
67816;SDS011;54614;47.576;7.524;2023-07-31T10:08:06;2.53;;;1.65;;
67816;SDS011;54614;47.576;7.524;2023-07-31T10:10:35;6.15;;;1.95;;
67816;SDS011;54614;47.576;7.524;2023-07-31T10:13:05;3.47;;;1.70;;
67816;SDS011;54614;47.576;7.524;2023-07-31T10:15:32;3.28;;;1.80;;
67816;SDS011;54614;47.576;7.524;2023-07-31T10:18:00;2.58;;;1.70;;
67816;SDS011;54614;47.576;7.524;2023-07-31T10:20:27;2.63;;;1.77;;
67816;SDS011;54614;47.576;7.524;2023-07-31T10:22:55;2.60;;;1.70;;
67816;SDS011;54614;47.576;7.524;2023-07-31T10:25:21;3.30;;;1.88;;
67816;SDS011;54614;47.576;7.524;2023-07-31T10:27:47;3.45;;;1.52;;
67816;SDS011;54614;47.576;7.524;2023-07-31T10:30:18;1.85;;;1.70;;
67816;SDS011;54614;47.576;7.524;2023-07-31T10:32:49;1.83;;;1.60;;
67816;SDS011;54614;47.576;7.524;2023-07-31T10:35:18;1.60;;;1.50;;
67816;SDS011;54614;47.576;7.524;2023-07-31T10:37:47;2.47;;;1.60;;
67816;SDS011;54614;47.576;7.524;2023-07-31T10:40:16;2.65;;;1.70;;
67816;SDS011;54614;47.576;7.524;2023-07-31T10:42:52;2.13;;;1.63;;
67816;SDS011;54614;47.576;7.524;2023-07-31T10:48:03;2.75;;;1.80;;
67816;SDS011;54614;47.576;7.524;2023-07-31T10:50:32;2.90;;;1.83;;
67816;SDS011;54614;47.576;7.524;2023-07-31T10:53:03;2.22;;;1.73;;
67816;SDS011;54614;47.576;7.524;2023-07-31T10:55:42;1.70;;;1.60;;
67816;SDS011;54614;47.576;7.524;2023-07-31T10:58:09;2.03;;;1.50;;
67816;SDS011;54614;47.576;7.524;2023-07-31T11:00:38;1.98;;;1.70;;
67816;SDS011;54614;47.576;7.524;2023-07-31T11:03:07;6.50;;;1.75;;
67816;SDS011;54614;47.576;7.524;2023-07-31T11:08:27;1.67;;;1.58;;
67816;SDS011;54614;47.576;7.524;2023-07-31T11:13:27;1.83;;;1.60;;
67816;SDS011;54614;47.576;7.524;2023-07-31T11:15:54;1.88;;;1.70;;
67816;SDS011;54614;47.576;7.524;2023-07-31T11:18:19;1.77;;;1.60;;
67816;SDS011;54614;47.576;7.524;2023-07-31T11:20:45;1.67;;;1.58;;
67816;SDS011;54614;47.576;7.524;2023-07-31T11:23:11;3.17;;;1.80;;
67816;SDS011;54614;47.576;7.524;2023-07-31T11:25:38;2.22;;;1.42;;
67816;SDS011;54614;47.576;7.524;2023-07-31T11:28:14;2.42;;;1.70;;
67816;SDS011;54614;47.576;7.524;2023-07-31T11:30:42;1.90;;;1.70;;
67816;SDS011;54614;47.576;7.524;2023-07-31T11:33:10;1.60;;;1.50;;
67816;SDS011;54614;47.576;7.524;2023-07-31T11:35:42;1.83;;;1.50;;
67816;SDS011;54614;47.576;7.524;2023-07-31T11:38:23;2.30;;;1.73;;
67816;SDS011;54614;47.576;7.524;2023-07-31T11:40:55;1.80;;;1.70;;
67816;SDS011;54614;47.576;7.524;2023-07-31T11:43:23;2.60;;;1.55;;
67816;SDS011;54614;47.576;7.524;2023-07-31T11:45:50;1.55;;;1.45;;
67816;SDS011;54614;47.576;7.524;2023-07-31T11:48:20;2.30;;;1.70;;
67816;SDS011;54614;47.576;7.524;2023-07-31T11:50:47;1.50;;;1.40;;
67816;SDS011;54614;47.576;7.524;2023-07-31T11:53:16;2.42;;;1.60;;
67816;SDS011;54614;47.576;7.524;2023-07-31T11:55:47;2.58;;;1.80;;
67816;SDS011;54614;47.576;7.524;2023-07-31T11:58:14;1.60;;;1.50;;
67816;SDS011;54614;47.576;7.524;2023-07-31T12:00:43;2.78;;;1.50;;
67816;SDS011;54614;47.576;7.524;2023-07-31T12:03:09;2.25;;;1.33;;
67816;SDS011;54614;47.576;7.524;2023-07-31T12:05:36;1.80;;;1.67;;
67816;SDS011;54614;47.576;7.524;2023-07-31T12:08:08;1.65;;;1.52;;
67816;SDS011;54614;47.576;7.524;2023-07-31T12:10:36;1.83;;;1.50;;
67816;SDS011;54614;47.576;7.524;2023-07-31T12:13:07;1.70;;;1.58;;
67816;SDS011;54614;47.576;7.524;2023-07-31T12:18:27;1.52;;;1.42;;
67816;SDS011;54614;47.576;7.524;2023-07-31T12:20:58;1.60;;;1.50;;
67816;SDS011;54614;47.576;7.524;2023-07-31T12:23:31;1.50;;;1.40;;
67816;SDS011;54614;47.576;7.524;2023-07-31T12:31:11;1.60;;;1.50;;
67816;SDS011;54614;47.576;7.524;2023-07-31T12:33:49;1.55;;;1.45;;
67816;SDS011;54614;47.576;7.524;2023-07-31T12:36:23;2.05;;;1.60;;
67816;SDS011;54614;47.576;7.524;2023-07-31T12:38:49;1.70;;;1.60;;
67816;SDS011;54614;47.576;7.524;2023-07-31T12:41:17;1.60;;;1.50;;
67816;SDS011;54614;47.576;7.524;2023-07-31T12:43:44;1.70;;;1.60;;
67816;SDS011;54614;47.576;7.524;2023-07-31T12:46:10;1.95;;;1.70;;
67816;SDS011;54614;47.576;7.524;2023-07-31T12:48:37;1.50;;;1.40;;
67816;SDS011;54614;47.576;7.524;2023-07-31T12:51:04;1.73;;;1.60;;
67816;SDS011;54614;47.576;7.524;2023-07-31T12:53:31;1.73;;;1.60;;
67816;SDS011;54614;47.576;7.524;2023-07-31T12:55:57;2.67;;;1.65;;
67816;SDS011;54614;47.576;7.524;2023-07-31T12:58:24;1.50;;;1.40;;
67816;SDS011;54614;47.576;7.524;2023-07-31T13:00:50;1.50;;;1.40;;
67816;SDS011;54614;47.576;7.524;2023-07-31T13:03:16;2.08;;;1.58;;
67816;SDS011;54614;47.576;7.524;2023-07-31T13:05:42;1.30;;;1.25;;
67816;SDS011;54614;47.576;7.524;2023-07-31T13:08:08;1.67;;;1.58;;
67816;SDS011;54614;47.576;7.524;2023-07-31T13:10:36;1.55;;;1.45;;
67816;SDS011;54614;47.576;7.524;2023-07-31T13:13:02;3.50;;;1.77;;
67816;SDS011;54614;47.576;7.524;2023-07-31T13:15:28;3.70;;;1.70;;
67816;SDS011;54614;47.576;7.524;2023-07-31T13:17:54;1.90;;;1.40;;
67816;SDS011;54614;47.576;7.524;2023-07-31T13:20:20;3.33;;;1.60;;
67816;SDS011;54614;47.576;7.524;2023-07-31T13:22:45;6.88;;;1.60;;
67816;SDS011;54614;47.576;7.524;2023-07-31T13:25:11;1.50;;;1.40;;
67816;SDS011;54614;47.576;7.524;2023-07-31T13:27:41;1.67;;;1.52;;
67816;SDS011;54614;47.576;7.524;2023-07-31T13:30:07;1.48;;;1.40;;
67816;SDS011;54614;47.576;7.524;2023-07-31T13:32:33;2.15;;;1.60;;
67816;SDS011;54614;47.576;7.524;2023-07-31T13:35:03;3.03;;;1.60;;
67816;SDS011;54614;47.576;7.524;2023-07-31T13:37:33;6.43;;;1.60;;
67816;SDS011;54614;47.576;7.524;2023-07-31T13:39:59;3.90;;;1.80;;
67816;SDS011;54614;47.576;7.524;2023-07-31T13:42:25;1.60;;;1.50;;
67816;SDS011;54614;47.576;7.524;2023-07-31T13:44:53;1.80;;;1.70;;
67816;SDS011;54614;47.576;7.524;2023-07-31T13:47:21;3.17;;;1.52;;
67816;SDS011;54614;47.576;7.524;2023-07-31T13:49:46;3.05;;;1.73;;
67816;SDS011;54614;47.576;7.524;2023-07-31T13:52:12;2.13;;;1.50;;
67816;SDS011;54614;47.576;7.524;2023-07-31T13:54:38;1.70;;;1.60;;
67816;SDS011;54614;47.576;7.524;2023-07-31T13:57:04;1.85;;;1.67;;
67816;SDS011;54614;47.576;7.524;2023-07-31T13:59:30;3.25;;;1.50;;
67816;SDS011;54614;47.576;7.524;2023-07-31T14:01:56;3.10;;;1.85;;
67816;SDS011;54614;47.576;7.524;2023-07-31T14:04:21;1.90;;;1.70;;
67816;SDS011;54614;47.576;7.524;2023-07-31T14:06:47;2.20;;;1.60;;
67816;SDS011;54614;47.576;7.524;2023-07-31T14:09:15;1.55;;;1.45;;
67816;SDS011;54614;47.576;7.524;2023-07-31T14:11:42;4.00;;;1.80;;
67816;SDS011;54614;47.576;7.524;2023-07-31T14:14:08;2.00;;;1.63;;
67816;SDS011;54614;47.576;7.524;2023-07-31T14:16:35;2.50;;;1.73;;
67816;SDS011;54614;47.576;7.524;2023-07-31T14:19:01;2.05;;;1.60;;
67816;SDS011;54614;47.576;7.524;2023-07-31T14:21:27;3.40;;;1.67;;
67816;SDS011;54614;47.576;7.524;2023-07-31T14:23:52;4.50;;;1.67;;
67816;SDS011;54614;47.576;7.524;2023-07-31T14:26:18;3.17;;;1.70;;
67816;SDS011;54614;47.576;7.524;2023-07-31T14:28:44;3.75;;;1.75;;
67816;SDS011;54614;47.576;7.524;2023-07-31T14:31:10;6.07;;;1.85;;
67816;SDS011;54614;47.576;7.524;2023-07-31T14:33:36;6.55;;;2.30;;
67816;SDS011;54614;47.576;7.524;2023-07-31T14:36:01;4.82;;;2.13;;
67816;SDS011;54614;47.576;7.524;2023-07-31T14:38:28;8.52;;;2.65;;
67816;SDS011;54614;47.576;7.524;2023-07-31T14:40:53;7.95;;;2.58;;
67816;SDS011;54614;47.576;7.524;2023-07-31T14:43:19;9.02;;;3.30;;
67816;SDS011;54614;47.576;7.524;2023-07-31T14:45:45;16.38;;;3.45;;
67816;SDS011;54614;47.576;7.524;2023-07-31T14:48:11;9.68;;;3.35;;
67816;SDS011;54614;47.576;7.524;2023-07-31T14:50:38;11.73;;;3.78;;
67816;SDS011;54614;47.576;7.524;2023-07-31T14:53:03;9.63;;;3.35;;
67816;SDS011;54614;47.576;7.524;2023-07-31T14:55:29;8.98;;;3.60;;
67816;SDS011;54614;47.576;7.524;2023-07-31T14:57:55;8.90;;;3.20;;
67816;SDS011;54614;47.576;7.524;2023-07-31T15:00:21;14.52;;;3.97;;
67816;SDS011;54614;47.576;7.524;2023-07-31T15:02:47;11.27;;;3.60;;
67816;SDS011;54614;47.576;7.524;2023-07-31T15:05:12;10.75;;;3.80;;
67816;SDS011;54614;47.576;7.524;2023-07-31T15:07:38;21.85;;;4.20;;
67816;SDS011;54614;47.576;7.524;2023-07-31T15:10:04;14.25;;;3.72;;
67816;SDS011;54614;47.576;7.524;2023-07-31T15:12:31;12.95;;;4.00;;
67816;SDS011;54614;47.576;7.524;2023-07-31T15:14:57;11.70;;;3.90;;
67816;SDS011;54614;47.576;7.524;2023-07-31T15:17:22;11.63;;;3.97;;
67816;SDS011;54614;47.576;7.524;2023-07-31T15:19:49;11.60;;;4.03;;
67816;SDS011;54614;47.576;7.524;2023-07-31T15:22:14;14.98;;;3.78;;
67816;SDS011;54614;47.576;7.524;2023-07-31T15:24:40;9.73;;;3.90;;